Time;durP1;ratioP1;P1;durP2;ratioP2;P2;SDS_P1;SDS_P2;PMS_P1;PMS_P2;Temp;Humidity;BMP_temperature;BMP_pressure;BME280_temperature;BME280_humidity;BME280_pressure;Samples;Min_cycle;Max_cycle;Signal;HPM_P1;HPM_P2
2023/10/06 00:05:48;;;;;;;;;;;14.00;99.90;;;;;;12618883;28;19970;-34
2023/10/06 00:11:55;;;;;;;;;;;14.00;99.90;;;;;;12594460;28;19970;-35
2023/10/06 00:18:07;;;;;;;;;;;13.90;99.90;;;;;;12601931;28;19951;-34
2023/10/06 00:24:25;;;;;;;;;;;13.80;99.90;;;;;;12618407;28;19924;-35
2023/10/06 00:30:42;;;;;;;;;;;13.80;99.90;;;;;;12625336;28;19931;-34
2023/10/06 00:37:02;;;;;;;;;;;13.70;99.90;;;;;;12610394;28;20373;-34
2023/10/06 00:43:21;;;;;;;;;;;13.60;99.90;;;;;;12626249;28;19978;-35
2023/10/06 00:49:43;;;;;;;;;;;13.50;99.90;;;;;;12619446;28;20061;-35
2023/10/06 00:55:56;;;;;;;;;;;13.40;99.90;;;;;;12620732;28;19979;-34
2023/10/06 01:02:02;;;;;;;;;;;13.50;99.90;;;;;;12618407;28;20272;-34
2023/10/06 01:08:11;;;;;;;;;;;13.50;99.90;;;;;;12616912;28;19933;-34
2023/10/06 01:14:26;;;;;;;;;;;13.50;99.90;;;;;;12619012;28;20027;-35
2023/10/06 01:20:41;;;;;;;;;;;13.40;99.90;;;;;;12620344;28;20018;-35
2023/10/06 01:26:43;;;;;;;;;;;13.30;99.90;;;;;;12624739;28;19929;-35
2023/10/06 01:32:50;;;;;;;;;;;13.20;99.90;;;;;;12592088;28;19957;-35
2023/10/06 01:38:53;;;;;;;;;;;13.20;99.90;;;;;;12611636;28;19989;-35
2023/10/06 01:45:13;;;;;;;;;;;13.10;99.90;;;;;;12614101;28;20039;-35
2023/10/06 01:51:38;;;;;;;;;;;13.10;99.90;;;;;;12601767;28;20315;-34
2023/10/06 01:58:17;;;;;;;;;;;13.10;99.90;;;;;;12610866;28;19996;-35
2023/10/06 02:04:33;;;;;;;;;;;13.00;99.90;;;;;;12622756;28;19930;-35
2023/10/06 02:11:08;;;;;;;;;;;13.00;99.90;;;;;;12606524;28;20398;-35
2023/10/06 02:17:18;;;;;;;;;;;12.90;99.90;;;;;;12628789;28;19928;-35
2023/10/06 02:23:37;;;;;;;;;;;12.90;99.90;;;;;;12622261;28;20295;-34
2023/10/06 02:29:56;;;;;;;;;;;12.90;99.90;;;;;;12632017;28;19974;-34
2023/10/06 02:36:23;;;;;;;;;;;13.00;99.90;;;;;;12622751;28;19935;-35
2023/10/06 02:42:52;;;;;;;;;;;12.90;99.90;;;;;;12619928;28;20037;-35
2023/10/06 02:49:11;;;;;;;;;;;12.90;99.90;;;;;;12621840;28;19932;-34
2023/10/06 02:55:19;;;;;;;;;;;12.80;99.90;;;;;;12614295;28;19927;-34
2023/10/06 03:01:21;;;;;;;;;;;12.80;99.90;;;;;;12607018;28;20303;-35
2023/10/06 03:07:24;;;;;;;;;;;12.90;99.90;;;;;;12609982;28;19928;-35
2023/10/06 03:13:48;;;;;;;;;;;12.80;99.90;;;;;;12613728;28;19932;-35
2023/10/06 03:20:11;;;;;;;;;;;12.80;99.90;;;;;;12618432;28;19935;-35
2023/10/06 03:26:36;;;;;;;;;;;12.80;99.90;;;;;;12609227;28;20392;-34
2023/10/06 03:32:49;;;;;;;;;;;12.80;99.90;;;;;;12614126;28;20207;-35
2023/10/06 03:39:06;;;;;;;;;;;12.80;99.90;;;;;;12607793;28;19927;-34
2023/10/06 03:45:48;;;;;;;;;;;12.80;99.90;;;;;;12621798;28;20826;-35
2023/10/06 03:51:59;;;;;;;;;;;12.80;99.90;;;;;;12610366;28;19965;-34
2023/10/06 03:58:32;;;;;;;;;;;12.80;99.90;;;;;;12622406;28;19932;-35
2023/10/06 04:04:49;;;;;;;;;;;12.70;99.90;;;;;;12606996;28;20383;-34
2023/10/06 04:11:15;;;;;;;;;;;12.70;99.90;;;;;;12609695;28;20047;-34
2023/10/06 04:17:40;;;;;;;;;;;12.80;99.90;;;;;;12617943;28;19924;-34
2023/10/06 04:23:53;;;;;;;;;;;12.70;99.90;;;;;;12628277;28;19924;-34
2023/10/06 04:30:13;;;;;;;;;;;12.70;99.90;;;;;;12640780;28;20253;-34
2023/10/06 04:36:42;;;;;;;;;;;12.60;99.90;;;;;;12614972;28;19954;-34
2023/10/06 04:43:05;;;;;;;;;;;12.60;99.90;;;;;;12630971;28;19928;-33
2023/10/06 04:49:52;;;;;;;;;;;12.70;99.90;;;;;;12140596;27;14786034;-33
2023/10/06 04:56:22;;;;;;;;;;;12.70;99.90;;;;;;12619434;28;20284;-33
2023/10/06 05:02:51;;;;;;;;;;;12.60;99.90;;;;;;12612728;28;20424;-34
2023/10/06 05:09:11;;;;;;;;;;;12.60;99.90;;;;;;12610421;28;20441;-34
2023/10/06 05:15:37;;;;;;;;;;;12.50;99.90;;;;;;12616839;28;20398;-34
2023/10/06 05:21:58;;;;;;;;;;;12.60;99.90;;;;;;12618531;28;20019;-34
2023/10/06 05:28:21;;;;;;;;;;;12.60;99.90;;;;;;12616900;28;19975;-33
2023/10/06 05:34:40;;;;;;;;;;;12.60;99.90;;;;;;12616903;28;20342;-34
2023/10/06 05:41:02;;;;;;;;;;;12.60;99.90;;;;;;12616778;28;19936;-34
2023/10/06 05:47:24;;;;;;;;;;;12.50;99.90;;;;;;12566109;28;20389;-34
2023/10/06 05:53:38;;;;;;;;;;;12.60;99.90;;;;;;12561631;28;19975;-34
2023/10/06 05:59:56;;;;;;;;;;;12.60;99.90;;;;;;12535367;28;19940;-34
2023/10/06 06:06:22;;;;;;;;;;;12.50;99.90;;;;;;12514955;28;19931;-34
2023/10/06 06:12:47;;;;;;;;;;;12.60;99.90;;;;;;12529188;28;19964;-34
2023/10/06 06:19:01;;;;;;;;;;;12.60;99.90;;;;;;12514693;28;20020;-34
2023/10/06 06:25:22;;;;;;;;;;;12.60;99.90;;;;;;12534970;28;19936;-34
2023/10/06 06:31:45;;;;;;;;;;;12.70;99.90;;;;;;12531792;28;19925;-34
2023/10/06 06:38:12;;;;;;;;;;;12.80;99.90;;;;;;12527670;28;19960;-34
2023/10/06 06:44:30;;;;;;;;;;;12.80;99.90;;;;;;12516414;28;19929;-34
2023/10/06 06:50:48;;;;;;;;;;;12.70;99.90;;;;;;12527911;28;20438;-34
2023/10/06 06:57:09;;;;;;;;;;;12.80;99.90;;;;;;12527132;28;19929;-34
2023/10/06 07:03:26;;;;;;;;;;;12.90;99.90;;;;;;12523526;28;19982;-34
2023/10/06 07:09:40;;;;;;;;;;;13.10;99.90;;;;;;12508061;28;20448;-35
2023/10/06 07:15:54;;;;;;;;;;;13.30;99.90;;;;;;12507650;28;19987;-34
2023/10/06 07:22:05;;;;;;;;;;;13.40;99.90;;;;;;12505982;28;19979;-35
2023/10/06 07:28:13;;;;;;;;;;;13.60;99.90;;;;;;12512138;28;19925;-35
2023/10/06 07:34:32;;;;;;;;;;;13.90;99.90;;;;;;12524728;28;20012;-34
2023/10/06 07:40:46;;;;;;;;;;;14.30;99.90;;;;;;12511819;28;20350;-35
2023/10/06 07:46:56;;;;;;;;;;;14.40;99.90;;;;;;12520857;28;20011;-34
2023/10/06 07:53:11;;;;;;;;;;;14.50;99.90;;;;;;12517412;28;19936;-34
2023/10/06 07:59:29;;;;;;;;;;;14.50;99.90;;;;;;12528586;28;19924;-35
2023/10/06 08:05:50;;;;;;;;;;;14.80;98.70;;;;;;12510244;28;19932;-35
2023/10/06 08:12:09;;;;;;;;;;;14.90;84.70;;;;;;12528460;28;20510;-34
2023/10/06 08:18:25;;;;;;;;;;;15.10;54.90;;;;;;12509268;28;19932;-34
2023/10/06 08:24:44;;;;;;;;;;;15.20;25.70;;;;;;12526362;28;20521;-34
2023/10/06 08:31:03;;;;;;;;;;;15.40;8.80;;;;;;12527419;28;19970;-35
2023/10/06 08:37:16;;;;;;;;;;;15.60;1.00;;;;;;12521739;28;20433;-35
2023/10/06 08:43:34;;;;;;;;;;;15.70;1.00;;;;;;12522797;28;19959;-35
2023/10/06 08:49:53;;;;;;;;;;;15.70;1.00;;;;;;12503002;28;19940;-35
2023/10/06 08:56:14;;;;;;;;;;;15.40;1.00;;;;;;12518540;28;20004;-34
2023/10/06 09:02:33;;;;;;;;;;;15.50;1.00;;;;;;12521225;28;19982;-35
2023/10/06 09:08:44;;;;;;;;;;;15.70;1.00;;;;;;12513987;28;19925;-35
2023/10/06 09:14:54;;;;;;;;;;;15.70;1.00;;;;;;12519551;28;20476;-35
2023/10/06 09:21:15;;;;;;;;;;;15.90;1.00;;;;;;12518597;28;19925;-35
2023/10/06 09:27:37;;;;;;;;;;;16.00;1.00;;;;;;12518370;28;19936;-35
2023/10/06 09:33:54;;;;;;;;;;;16.30;1.00;;;;;;12526598;28;19964;-34
2023/10/06 09:40:20;;;;;;;;;;;16.50;1.00;;;;;;12511584;28;19925;-35
2023/10/06 09:46:41;;;;;;;;;;;16.50;1.00;;;;;;12524400;28;19929;-35
2023/10/06 09:53:03;;;;;;;;;;;16.80;1.00;;;;;;12522244;28;19933;-35
2023/10/06 09:59:29;;;;;;;;;;;17.10;1.00;;;;;;12526375;28;19929;-35
2023/10/06 10:05:48;;;;;;;;;;;17.10;1.00;;;;;;12524449;28;19940;-35
2023/10/06 10:12:14;;;;;;;;;;;17.00;1.00;;;;;;12509503;28;19979;-35
2023/10/06 10:18:35;;;;;;;;;;;17.60;1.00;;;;;;12529909;28;20393;-35
2023/10/06 10:24:53;;;;;;;;;;;17.80;1.00;;;;;;12530364;28;19932;-35
2023/10/06 10:31:18;;;;;;;;;;;17.50;1.00;;;;;;12531173;28;20381;-35
2023/10/06 10:37:56;;;;;;;;;;;17.60;1.00;;;;;;12529255;28;19928;-35
2023/10/06 10:44:23;;;;;;;;;;;17.70;1.00;;;;;;12512394;28;20400;-35
2023/10/06 10:51:01;;;;;;;;;;;17.40;1.00;;;;;;12516209;28;19931;-35
2023/10/06 10:57:35;;;;;;;;;;;17.60;1.00;;;;;;12533921;28;19936;-35
2023/10/06 11:04:12;;;;;;;;;;;18.30;1.00;;;;;;12525184;28;19994;-35
2023/10/06 11:10:34;;;;;;;;;;;18.20;1.00;;;;;;12533408;28;19925;-35
2023/10/06 11:17:06;;;;;;;;;;;17.80;1.00;;;;;;12525425;28;20024;-35
2023/10/06 11:23:43;;;;;;;;;;;17.90;99.90;;;;;;12521247;28;20286;-35
2023/10/06 11:30:12;;;;;;;;;;;18.10;99.90;;;;;;12530915;28;19924;-35
2023/10/06 11:36:33;;;;;;;;;;;18.20;1.00;;;;;;12516524;28;19983;-35
2023/10/06 11:42:48;;;;;;;;;;;18.40;99.90;;;;;;12515415;28;20325;-35
2023/10/06 11:49:14;;;;;;;;;;;18.50;99.90;;;;;;12522635;28;19936;-35
2023/10/06 11:55:37;;;;;;;;;;;18.70;99.90;;;;;;12510194;28;19929;-35
2023/10/06 12:01:51;;;;;;;;;;;18.30;99.90;;;;;;12522343;28;19928;-35
2023/10/06 12:08:08;;;;;;;;;;;18.50;99.90;;;;;;12524151;28;19925;-35
2023/10/06 12:14:33;;;;;;;;;;;18.60;42.00;;;;;;12528052;28;19929;-37
2023/10/06 12:20:46;;;;;;;;;;;18.50;99.90;;;;;;12527533;28;19986;-35
2023/10/06 12:27:09;;;;;;;;;;;19.00;99.90;;;;;;12521548;28;19929;-35
2023/10/06 12:33:38;;;;;;;;;;;19.00;1.00;;;;;;12520522;28;19925;-35
2023/10/06 12:40:00;;;;;;;;;;;19.10;1.00;;;;;;12521142;28;19929;-35
2023/10/06 12:46:12;;;;;;;;;;;19.20;88.80;;;;;;12524603;28;20028;-35
2023/10/06 12:52:36;;;;;;;;;;;19.20;95.70;;;;;;12499218;28;19925;-35
2023/10/06 12:58:47;;;;;;;;;;;18.90;1.00;;;;;;12516353;28;20029;-35
2023/10/06 13:04:57;;;;;;;;;;;18.90;99.90;;;;;;12520973;28;19929;-35
2023/10/06 13:11:12;;;;;;;;;;;18.70;93.30;;;;;;12530654;28;19975;-35
2023/10/06 13:17:28;;;;;;;;;;;18.30;99.90;;;;;;12528007;28;19983;-35
2023/10/06 13:23:44;;;;;;;;;;;18.10;99.90;;;;;;12530094;28;19932;-35
2023/10/06 13:30:01;;;;;;;;;;;18.00;99.90;;;;;;12527853;28;19940;-35
2023/10/06 13:36:11;;;;;;;;;;;17.90;99.90;;;;;;12530709;28;19932;-35
2023/10/06 13:42:31;;;;;;;;;;;17.90;99.90;;;;;;12529317;28;19955;-35
2023/10/06 13:48:47;;;;;;;;;;;17.90;99.90;;;;;;12526650;28;19925;-35
2023/10/06 13:55:05;;;;;;;;;;;17.90;99.90;;;;;;12509742;28;19925;-35
2023/10/06 14:01:29;;;;;;;;;;;17.80;1.00;;;;;;12529739;28;20468;-35
2023/10/06 14:07:52;;;;;;;;;;;17.90;1.00;;;;;;12531277;28;20342;-35
2023/10/06 14:14:23;;;;;;;;;;;17.80;1.00;;;;;;12517014;28;19935;-35
2023/10/06 14:20:45;;;;;;;;;;;17.60;1.00;;;;;;12531089;28;19929;-35
2023/10/06 14:27:11;;;;;;;;;;;17.60;1.00;;;;;;12528947;28;19978;-35
2023/10/06 14:33:44;;;;;;;;;;;17.70;99.90;;;;;;12531836;28;19929;-35
2023/10/06 14:46:39;;;;;;;;;;;17.60;1.00;;;;;;12530848;28;19925;-35
2023/10/06 14:52:55;;;;;;;;;;;17.60;1.00;;;;;;12525042;28;19925;-34
2023/10/06 14:59:18;;;;;;;;;;;17.70;1.00;;;;;;12530983;28;19975;-35
2023/10/06 15:05:43;;;;;;;;;;;17.80;1.00;;;;;;12532098;28;19983;-35
2023/10/06 15:11:59;;;;;;;;;;;17.70;1.00;;;;;;12528703;28;19928;-35
2023/10/06 15:18:21;;;;;;;;;;;17.60;1.00;;;;;;12527914;28;19970;-35
2023/10/06 15:24:39;;;;;;;;;;;17.70;1.00;;;;;;12526971;28;19975;-35
2023/10/06 15:31:00;;;;;;;;;;;17.80;1.00;;;;;;12522271;28;19937;-35
2023/10/06 15:37:13;;;;;;;;;;;17.70;1.00;;;;;;12508861;28;19936;-35
2023/10/06 15:43:30;;;;;;;;;;;17.60;1.00;;;;;;12527260;28;20020;-35
2023/10/06 15:49:43;;;;;;;;;;;17.50;1.00;;;;;;12517157;28;20228;-34
2023/10/06 15:56:13;;;;;;;;;;;17.40;1.00;;;;;;12519056;28;20376;-35
2023/10/06 16:02:27;;;;;;;;;;;17.40;1.00;;;;;;12529080;28;19972;-35
2023/10/06 16:08:49;;;;;;;;;;;17.40;1.00;;;;;;12526858;28;19929;-35
2023/10/06 16:15:11;;;;;;;;;;;17.30;1.00;;;;;;12529459;28;19925;-34
2023/10/06 16:21:31;;;;;;;;;;;17.30;1.00;;;;;;12520631;28;20296;-35
2023/10/06 16:28:01;;;;;;;;;;;17.30;1.00;;;;;;12523436;28;19967;-35
2023/10/06 16:34:20;;;;;;;;;;;17.30;1.00;;;;;;12528482;28;19925;-35
2023/10/06 16:40:33;;;;;;;;;;;17.30;1.00;;;;;;12511365;28;20341;-34
2023/10/06 16:46:55;;;;;;;;;;;17.30;1.00;;;;;;12522403;28;19933;-35
2023/10/06 16:53:14;;;;;;;;;;;17.30;1.00;;;;;;12519590;28;19932;-35
2023/10/06 16:59:38;;;;;;;;;;;17.20;1.00;;;;;;12525733;28;20033;-35
2023/10/06 17:05:54;;;;;;;;;;;17.10;1.00;;;;;;12525331;28;19925;-35
2023/10/06 17:12:23;;;;;;;;;;;17.10;1.00;;;;;;12525698;28;19929;-35
2023/10/06 17:18:52;;;;;;;;;;;17.00;1.00;;;;;;12527821;28;19932;-35
2023/10/06 17:25:23;;;;;;;;;;;16.90;1.00;;;;;;12506825;28;20293;-35
2023/10/06 17:31:48;;;;;;;;;;;16.90;1.00;;;;;;12529561;28;20380;-34
2023/10/06 17:38:07;;;;;;;;;;;16.90;1.00;;;;;;12523591;28;19929;-35
2023/10/06 17:44:23;;;;;;;;;;;16.80;1.00;;;;;;12517715;28;20264;-35
2023/10/06 17:50:51;;;;;;;;;;;16.90;1.00;;;;;;12512681;28;19928;-35
2023/10/06 17:57:20;;;;;;;;;;;16.80;1.00;;;;;;12503883;28;19931;-35
2023/10/06 18:03:41;;;;;;;;;;;16.80;1.00;;;;;;12532976;28;19974;-35
2023/10/06 18:10:11;;;;;;;;;;;16.80;1.00;;;;;;12518571;28;19925;-35
2023/10/06 18:16:30;;;;;;;;;;;16.80;1.00;;;;;;12526308;28;20395;-35
2023/10/06 18:22:55;;;;;;;;;;;16.80;1.00;;;;;;12522948;28;19980;-35
2023/10/06 18:29:10;;;;;;;;;;;16.80;1.00;;;;;;12531673;28;19929;-35
2023/10/06 18:35:38;;;;;;;;;;;16.80;1.00;;;;;;12535637;28;20035;-35
2023/10/06 18:41:52;;;;;;;;;;;16.60;1.00;;;;;;12535070;28;19925;-34
2023/10/06 18:48:12;;;;;;;;;;;16.70;1.00;;;;;;12516115;28;19928;-35
2023/10/06 18:54:33;;;;;;;;;;;16.60;1.00;;;;;;12531272;28;20024;-35
2023/10/06 19:00:50;;;;;;;;;;;16.60;1.00;;;;;;12486302;28;20308;-35
2023/10/06 19:06:52;;;;;;;;;;;16.50;1.00;;;;;;12502023;28;20297;-35
2023/10/06 19:12:54;;;;;;;;;;;16.50;1.00;;;;;;12497267;28;20087;-35
2023/10/06 19:18:58;;;;;;;;;;;16.50;1.00;;;;;;12498428;28;19982;-35
2023/10/06 19:25:01;;;;;;;;;;;16.50;1.00;;;;;;12496945;28;19932;-35
2023/10/06 19:31:03;;;;;;;;;;;16.50;1.00;;;;;;12498365;28;19932;-35
2023/10/06 19:37:05;;;;;;;;;;;16.50;1.00;;;;;;12502450;28;19933;-35
2023/10/06 19:43:07;;;;;;;;;;;16.40;1.00;;;;;;12495521;28;19929;-35
2023/10/06 19:49:10;;;;;;;;;;;16.40;1.00;;;;;;12500139;28;20007;-35
2023/10/06 19:55:12;;;;;;;;;;;16.30;1.00;;;;;;12499099;28;19929;-35
2023/10/06 20:01:19;;;;;;;;;;;16.30;1.00;;;;;;12494419;28;19928;-35
2023/10/06 20:07:21;;;;;;;;;;;16.30;1.00;;;;;;12499448;28;20000;-35
2023/10/06 20:13:23;;;;;;;;;;;16.10;1.00;;;;;;12504157;28;19925;-35
2023/10/06 20:19:25;;;;;;;;;;;16.10;1.00;;;;;;12498877;28;20396;-35
2023/10/06 20:25:27;;;;;;;;;;;16.00;1.00;;;;;;12483638;28;20373;-35
2023/10/06 20:31:29;;;;;;;;;;;15.90;1.00;;;;;;12494433;28;19928;-35
2023/10/06 20:37:31;;;;;;;;;;;15.90;9.00;;;;;;12495452;28;20457;-35
2023/10/06 20:43:33;;;;;;;;;;;15.90;7.80;;;;;;12502106;28;19932;-35
2023/10/06 20:49:35;;;;;;;;;;;15.90;10.60;;;;;;12486399;28;19988;-35
2023/10/06 20:55:37;;;;;;;;;;;15.80;19.00;;;;;;12503265;28;20016;-35
2023/10/06 21:01:41;;;;;;;;;;;15.80;21.50;;;;;;12502167;28;19956;-35
2023/10/06 21:07:43;;;;;;;;;;;15.80;33.70;;;;;;12495178;28;19939;-35
2023/10/06 21:13:45;;;;;;;;;;;15.80;44.80;;;;;;12489960;28;20023;-35
2023/10/06 21:19:47;;;;;;;;;;;15.70;46.20;;;;;;12486714;28;19960;-34
2023/10/06 21:25:51;;;;;;;;;;;15.70;49.30;;;;;;12495526;28;20404;-35
2023/10/06 21:31:52;;;;;;;;;;;15.60;62.20;;;;;;12509206;28;19929;-35
2023/10/06 21:37:54;;;;;;;;;;;15.60;78.20;;;;;;12497128;28;20403;-34
2023/10/06 21:43:56;;;;;;;;;;;15.60;67.60;;;;;;12501981;28;20463;-35
2023/10/06 21:49:58;;;;;;;;;;;15.60;83.40;;;;;;12499845;28;19988;-34
2023/10/06 21:56:10;;;;;;;;;;;15.50;79.80;;;;;;12504115;28;19933;-34
2023/10/06 22:02:13;;;;;;;;;;;15.60;80.00;;;;;;12491725;28;19975;-34
2023/10/06 22:08:15;;;;;;;;;;;15.50;83.30;;;;;;12504858;28;19968;-33
2023/10/06 22:14:21;;;;;;;;;;;15.50;90.70;;;;;;12506840;28;20015;-33
2023/10/06 22:20:24;;;;;;;;;;;15.50;97.00;;;;;;12505683;28;19972;-34
2023/10/06 22:26:26;;;;;;;;;;;15.40;99.80;;;;;;12504902;28;19933;-34
2023/10/06 22:32:28;;;;;;;;;;;15.40;99.60;;;;;;12502898;28;19929;-34
2023/10/06 22:38:31;;;;;;;;;;;15.40;99.90;;;;;;12499197;28;19928;-34
2023/10/06 22:44:32;;;;;;;;;;;15.30;99.90;;;;;;12494510;28;20013;-34
2023/10/06 22:50:36;;;;;;;;;;;15.20;99.90;;;;;;12490862;28;19929;-34
2023/10/06 22:56:37;;;;;;;;;;;15.20;99.90;;;;;;12499569;28;20203;-34
2023/10/06 23:02:42;;;;;;;;;;;15.30;99.90;;;;;;12505622;28;20222;-34
2023/10/06 23:08:44;;;;;;;;;;;15.10;99.90;;;;;;12505910;28;19976;-34
2023/10/06 23:14:45;;;;;;;;;;;15.10;99.90;;;;;;12505400;28;19959;-35
2023/10/06 23:20:47;;;;;;;;;;;15.10;99.90;;;;;;12503086;28;20400;-35
2023/10/06 23:26:50;;;;;;;;;;;15.10;99.90;;;;;;12496991;28;20325;-35
2023/10/06 23:32:51;;;;;;;;;;;15.00;99.90;;;;;;12504205;28;20015;-34
2023/10/06 23:38:53;;;;;;;;;;;15.10;99.90;;;;;;12505152;28;20408;-35
2023/10/06 23:44:55;;;;;;;;;;;15.10;99.90;;;;;;12498471;28;20045;-35
2023/10/06 23:51:08;;;;;;;;;;;15.00;99.90;;;;;;12485639;28;19940;-35
2023/10/06 23:57:17;;;;;;;;;;;15.00;99.90;;;;;;12500759;28;20440;-34
